Language: 


Des rapports , des résumés tant et plus, au choix de chacun....


Données statistiques de la station
Quotidien Rapport Janvier 17, 2018 Unités:  Métrique    Anglais   les deux
« Précédent Jour
Suivant Jour »
Quotidien Hebdomadaire Mensuel Annuel Actuel
  Haut: Bas: Moyen:
Température: -17.8 °C -16.4 °C -15.1 °C
Pt de rosée: -17.8 °C -18.3 °C -17.2 °C
Humidité: Humidity % 55 % 74 %
Vitesse du vent: 0 km/h 0 km/h 23.8 km/h
Rafales: 0 km/h - -
Vent:- - West
Pression: 0 hPa 33694.1 hPa -
Précipitation: 0 mm    
Historical Graphs
 
 
Données statistiques pour Janvier 17, 2018
Heure Température Point de rosée Pression Vent Vitesse du vent Refales Humidité Pluie (taux horaire)
-17.8 °C -17.8 °C 0 hPa Calm     Humidity % 0 mm
00:01 -15.4 °C -16.1 °C 33694.1 hPa West 36.5 km/h 39.9 km/h 94 % 0 mm
00:12 -15.4 °C -16.1 °C 33694.1 hPa West 44.6 km/h 44.6 km/h 94 % 0 mm
00:17 -15.3 °C -16.7 °C 33694.1 hPa WSW 31.4 km/h 44.6 km/h 85 % 0 mm
00:31 -15.3 °C -16.7 °C 33694.1 hPa West 39.4 km/h 39.4 km/h 85 % 0 mm
00:37 -15.3 °C -16.7 °C 33694.1 hPa WNW 33.2 km/h 48.6 km/h 85 % 0 mm
00:59 -15.3 °C -16.7 °C 33694.1 hPa West 38.3 km/h 40.7 km/h 85 % 0 mm
01:19 -15.3 °C -16.7 °C 33731.3 hPa West 16.3 km/h 41.2 km/h 85 % 0 mm
01:28 -15.3 °C -16.7 °C 33731.3 hPa West 24.8 km/h 51.5 km/h 85 % 0 mm
01:46 -15.3 °C -16.7 °C 33694.1 hPa West 20.9 km/h 39.4 km/h 85 % 0 mm
01:52 -15.3 °C -16.7 °C 33694.1 hPa West 14 km/h 39.4 km/h 85 % 0 mm
01:59 -15.3 °C -16.7 °C 33694.1 hPa WSW 20.3 km/h 36 km/h 85 % 0 mm
02:04 -15.3 °C -16.7 °C 33694.1 hPa West 25.4 km/h 36 km/h 85 % 0 mm
02:12 -15.3 °C -17.2 °C 33694.1 hPa WSW 16.9 km/h 37 km/h 75 % 0 mm
02:25 -15.3 °C -17.2 °C 33694.1 hPa West 22.5 km/h 29.5 km/h 75 % 0 mm
02:45 -15.3 °C -17.2 °C 33694.1 hPa West 28.5 km/h 44.6 km/h 75 % 0 mm
02:53 -15.3 °C -17.2 °C 33694.1 hPa WSW 45.1 km/h 45.1 km/h 75 % 0 mm
02:58 -15.3 °C -17.2 °C 33731.3 hPa WNW 37 km/h 45.1 km/h 75 % 0 mm
03:28 -15.3 °C -17.8 °C 33731.3 hPa West 31.9 km/h 51 km/h 71 % 0 mm
03:35 -15.3 °C -17.8 °C 33731.3 hPa WSW 26.7 km/h 51 km/h 71 % 0 mm
03:42 -15.4 °C -17.8 °C 33751.6 hPa WNW 20.3 km/h 42.2 km/h 71 % 0 mm
03:50 -15.6 °C -18.3 °C 33751.6 hPa West 42.2 km/h 42.2 km/h 71 % 0 mm
03:55 -15.6 °C -17.8 °C 33751.6 hPa WSW 22 km/h 42.2 km/h 72 % 0 mm
04:04 -15.7 °C -18.3 °C 33751.6 hPa SW 56.6 km/h 56.6 km/h 72 % 0 mm
04:12 -15.8 °C -18.3 °C 33751.6 hPa NW 22 km/h 56.6 km/h 72 % 0 mm
04:20 -15.8 °C -18.3 °C 33751.6 hPa West 39.9 km/h 43.5 km/h 73 % 0 mm
04:27 -15.9 °C -18.3 °C 33751.6 hPa WSW 35.2 km/h 41.2 km/h 73 % 0 mm
04:33 -15.9 °C -18.3 °C 33751.6 hPa WSW 27.2 km/h 39.9 km/h 73 % 0 mm
04:45 -15.9 °C -18.3 °C 33751.6 hPa West 26.7 km/h 37 km/h 73 % 0 mm
04:56 -15.8 °C -18.3 °C 33751.6 hPa WSW 30.7 km/h 43 km/h 73 % 0 mm
05:14 -15.8 °C -18.3 °C 33751.6 hPa WNW 9.8 km/h 36.5 km/h 72 % 0 mm
05:42 -15.9 °C -18.3 °C 33788.9 hPa WNW 16.3 km/h 44.6 km/h 71 % 0 mm
05:48 -15.9 °C -18.3 °C 33788.9 hPa West 19.2 km/h 44.6 km/h 71 % 0 mm
05:56 -15.9 °C -18.3 °C 33822.8 hPa West 25.4 km/h 39.9 km/h 71 % 0 mm
06:12 -15.9 °C -18.3 °C 33822.8 hPa WNW 33.6 km/h 52.8 km/h 71 % 0 mm
06:18 -15.9 °C -18.3 °C 33822.8 hPa SSW 45.1 km/h 45.1 km/h 72 % 0 mm
06:36 -15.9 °C -18.3 °C 33822.8 hPa West 44.1 km/h 44.1 km/h 72 % 0 mm
06:41 -15.9 °C -18.3 °C 33822.8 hPa WNW 7.6 km/h 44.1 km/h 72 % 0 mm
06:47 -15.9 °C -18.3 °C 33822.8 hPa WNW 11.1 km/h 45.1 km/h 72 % 0 mm
06:57 -15.9 °C -18.3 °C 33788.9 hPa WSW 15.6 km/h 37 km/h 72 % 0 mm
07:04 -15.9 °C -18.3 °C 33788.9 hPa South 22 km/h 32.3 km/h 72 % 0 mm
07:23 -15.9 °C -18.3 °C 33856.6 hPa SW 33.2 km/h 44.6 km/h 72 % 0 mm
07:35 -16.1 °C -18.3 °C 33856.6 hPa WNW 22.5 km/h 50.5 km/h 74 % 0 mm
07:44 -16 °C -17.8 °C 33890.5 hPa West 34.1 km/h 39.4 km/h 75 % 0 mm
07:51 -15.9 °C -17.8 °C 33890.5 hPa West 42.2 km/h 42.2 km/h 75 % 0 mm
08:12 -15.9 °C -18.3 °C 33890.5 hPa West 20.9 km/h 44.1 km/h 73 % 0 mm
08:30 -16 °C -18.3 °C 33924.3 hPa West 33.6 km/h 33.6 km/h 73 % 0 mm
08:35 -16.1 °C -18.3 °C 33924.3 hPa West 29 km/h 36 km/h 73 % 0 mm
08:47 -16.1 °C -18.3 °C 33924.3 hPa West 27.2 km/h 39.4 km/h 73 % 0 mm
08:56 -16.1 °C -18.3 °C 33924.3 hPa West 14 km/h 44.6 km/h 73 % 0 mm
09:09 -15.9 °C -18.3 °C 33924.3 hPa WSW 22 km/h 51 km/h 74 % 0 mm
09:17 -15.9 °C -18.3 °C 33924.3 hPa West 27.7 km/h 40.7 km/h 74 % 0 mm
09:23 -15.9 °C -18.3 °C 33924.3 hPa West 26.7 km/h 41.2 km/h 74 % 0 mm
09:43 -15.8 °C -17.8 °C 33958.2 hPa WSW 34.1 km/h 43.5 km/h 75 % 0 mm
09:50 -15.8 °C -17.8 °C 33958.2 hPa SW 15 km/h 38.3 km/h 75 % 0 mm
09:56 -15.7 °C -17.8 °C 33958.2 hPa WSW 28.5 km/h 39.4 km/h 75 % 0 mm
10:05 -15.6 °C -17.8 °C 33958.2 hPa West 22 km/h 37 km/h 74 % 0 mm
10:11 -15.6 °C -17.8 °C 33992.1 hPa WSW 42.2 km/h 42.2 km/h 74 % 0 mm
10:17 -15.4 °C -17.8 °C 33992.1 hPa SW 23.8 km/h 42.2 km/h 73 % 0 mm
10:32 -15.2 °C -17.8 °C 34029.3 hPa WSW 30.7 km/h 53.9 km/h 71 % 0 mm
10:48 -14.9 °C -17.8 °C 34029.3 hPa WSW 19.6 km/h 37.5 km/h 70 % 0 mm
10:56 -14.7 °C -17.2 °C 34029.3 hPa WNW 33.6 km/h 41.7 km/h 70 % 0 mm
11:02 -14.6 °C -17.2 °C 34029.3 hPa West 39.4 km/h 39.9 km/h 69 % 0 mm
11:17 -14.3 °C -17.2 °C 33992.1 hPa West 20.3 km/h 39.9 km/h 67 % 0 mm
11:22 -14.2 °C -17.2 °C 33992.1 hPa West 22.5 km/h 28.5 km/h 67 % 0 mm
11:29 -14.2 °C -17.2 °C 34029.3 hPa West 26.2 km/h 44.1 km/h 66 % 0 mm
11:36 -14.2 °C -17.2 °C 34029.3 hPa WSW 17.4 km/h 44.1 km/h 66 % 0 mm
11:41 -14.1 °C -17.2 °C 34029.3 hPa West 27.2 km/h 49.2 km/h 65 % 0 mm
11:47 -14 °C -17.2 °C 34029.3 hPa WSW 24.8 km/h 49.2 km/h 65 % 0 mm
11:54 -14 °C -17.2 °C 34029.3 hPa NW 32.3 km/h 45.1 km/h 64 % 0 mm
12:00 -13.9 °C -17.2 °C 34063.2 hPa NNW 38.3 km/h 48.1 km/h 63 % 0 mm
12:11 -13.8 °C -17.8 °C 34063.2 hPa WNW 20.3 km/h 53.9 km/h 61 % 0 mm
12:22 -13.7 °C -17.8 °C 34063.2 hPa NW 48.6 km/h 60.3 km/h 59 % 0 mm
12:35 -13.7 °C -17.8 °C 34063.2 hPa West 29.5 km/h 49.2 km/h 60 % 0 mm
12:46 -13.6 °C -17.2 °C 34063.2 hPa West 20.9 km/h 51 km/h 61 % 0 mm
12:53 -13.6 °C -17.2 °C 34063.2 hPa West 19.6 km/h 51 km/h 61 % 0 mm
12:58 -13.5 °C -17.2 °C 34097 hPa NW 44.6 km/h 44.6 km/h 60 % 0 mm
13:05 -13.6 °C -17.8 °C 34097 hPa West 29 km/h 45.9 km/h 59 % 0 mm
13:15 -13.7 °C -17.8 °C 34097 hPa North 26.2 km/h 58.6 km/h 60 % 0 mm
13:29 -13.7 °C -17.8 °C 34097 hPa SW 34.1 km/h 62 km/h 59 % 0 mm
13:38 -13.7 °C -17.8 °C 34097 hPa South 34.1 km/h 60.3 km/h 60 % 0 mm
13:52 -13.6 °C -17.8 °C 34097 hPa West 34.1 km/h 60.8 km/h 59 % 0 mm
14:05 -13.4 °C -17.8 °C 34097 hPa NW 34.8 km/h 56.6 km/h 57 % 0 mm
14:25 -13.4 °C -17.8 °C 34063.2 hPa West 48.1 km/h 57.3 km/h 56 % 0 mm
14:32 -13.4 °C -17.8 °C 34097 hPa WSW 57.3 km/h 57.3 km/h 56 % 0 mm
14:38 -13.3 °C -17.8 °C 34097 hPa West 27.7 km/h 57.3 km/h 56 % 0 mm
14:44 -13.3 °C -17.8 °C 34097 hPa West 44.1 km/h 51 km/h 57 % 0 mm
14:52 -13.4 °C -18.3 °C 34097 hPa WSW 40.7 km/h 58.6 km/h 55 % 0 mm
15:01 -13.6 °C -18.3 °C 34097 hPa WSW 26.2 km/h 51.5 km/h 56 % 0 mm
15:06 -13.6 °C -17.8 °C 34097 hPa WSW 33.2 km/h 51.5 km/h 58 % 0 mm
15:14 -13.4 °C -17.2 °C 34097 hPa WNW 25.4 km/h 40.7 km/h 59 % 0 mm
15:20 -13.5 °C -17.8 °C 34097 hPa West 44.6 km/h 44.6 km/h 58 % 0 mm
15:26 -13.6 °C -17.2 °C 34097 hPa West 44.6 km/h 51 km/h 60 % 0 mm
16:05 -13.8 °C -17.2 °C 34130.9 hPa West 18.7 km/h 34.1 km/h 64 % 0 mm
16:11 -13.9 °C -17.2 °C 34130.9 hPa WSW 24.3 km/h 28.5 km/h 66 % 0 mm
16:18 -14.1 °C -17.2 °C 34130.9 hPa West 22 km/h 38.3 km/h 68 % 0 mm
16:38 -14.3 °C -17.2 °C 34130.9 hPa WSW 33.2 km/h 36.5 km/h 70 % 0 mm
17:04 -14.7 °C -17.2 °C 34164.7 hPa WSW 22 km/h 37.5 km/h 72 % 0 mm
17:12 -14.7 °C -17.2 °C 34164.7 hPa WSW 24.8 km/h 32.3 km/h 73 % 0 mm
17:20 -14.8 °C -17.2 °C 34164.7 hPa West 24.8 km/h 31.9 km/h 73 % 0 mm
17:30 -14.8 °C -17.2 °C 34164.7 hPa West 16.9 km/h 34.1 km/h 74 % 0 mm
17:35 -14.7 °C -16.7 °C 34164.7 hPa West 26.2 km/h 38.3 km/h 75 % 0 mm
17:40 -14.7 °C -16.7 °C 34164.7 hPa WSW 29 km/h 38.3 km/h 75 % 0 mm
17:50 -14.6 °C -16.7 °C 34164.7 hPa West 24.8 km/h 39.9 km/h 74 % 0 mm
17:59 -14.7 °C -16.7 °C 34164.7 hPa WSW 20.9 km/h 34.1 km/h 74 % 0 mm
18:06 -14.7 °C -16.7 °C 34164.7 hPa WSW 20.9 km/h 31.4 km/h 74 % 0 mm
18:17 -14.8 °C -16.7 °C 34130.9 hPa WSW 22.5 km/h 34.1 km/h 75 % 0 mm
18:29 -14.8 °C -16.7 °C 34130.9 hPa West 19.6 km/h 29.5 km/h 75 % 0 mm
18:39 -14.9 °C -17.2 °C 34130.9 hPa Calm   27.2 km/h 76 % 0 mm
18:46 -15.1 °C -17.2 °C 34130.9 hPa WSW 10.3 km/h 20.9 km/h 76 % 0 mm
18:55 -15.2 °C -17.2 °C 34130.9 hPa WSW 19.6 km/h 19.6 km/h 77 % 0 mm
19:07 -15 °C -16.7 °C 34130.9 hPa WSW 23.8 km/h 26.7 km/h 77 % 0 mm
19:17 -15.1 °C -17.2 °C 34130.9 hPa WSW 18.7 km/h 25.4 km/h 77 % 0 mm
19:29 -15.4 °C -17.2 °C 34130.9 hPa WSW 7.6 km/h 15.6 km/h 77 % 0 mm
19:45 -15.6 °C -17.2 °C 34164.7 hPa Calm   12.7 km/h 78 % 0 mm
20:02 -15.7 °C -17.2 °C 34164.7 hPa Calm   12.2 km/h 79 % 0 mm
20:12 -15.9 °C -17.8 °C 34164.7 hPa SW 10.3 km/h 14 km/h 79 % 0 mm
20:22 -15.9 °C -17.2 °C 34164.7 hPa WSW 10.3 km/h 14 km/h 80 % 0 mm
20:27 -16 °C -17.2 °C 34164.7 hPa WSW 11.1 km/h 12.7 km/h 81 % 0 mm
20:36 -16.1 °C -17.8 °C 34164.7 hPa Calm   11.1 km/h 81 % 0 mm
20:41 -16.2 °C -17.2 °C 34164.7 hPa Calm   6.4 km/h 82 % 0 mm
20:46 -16.2 °C -17.2 °C 34164.7 hPa Calm   6.4 km/h 82 % 0 mm
20:51 -16.3 °C -17.8 °C 34164.7 hPa Calm   9.3 km/h 82 % 0 mm
20:56 -16.4 °C -17.8 °C 34164.7 hPa Calm   9.3 km/h 82 % 0 mm
21:01 -16.4 °C -17.8 °C 34164.7 hPa Calm   10.3 km/h 83 % 0 mm
21:06 -16.4 °C -17.8 °C 34164.7 hPa Calm   12.2 km/h 83 % 0 mm
21:12 -16.2 °C -17.2 °C 34164.7 hPa WSW 14 km/h 15 km/h 84 % 0 mm
21:17 -16.1 °C -17.2 °C 34164.7 hPa Calm   16.3 km/h 85 % 0 mm
21:22 -16 °C -17.2 °C 34164.7 hPa West 14.5 km/h 16.3 km/h 86 % 0 mm
21:27 -15.9 °C -17.2 °C 34164.7 hPa WSW 9.8 km/h 15 km/h 86 % 0 mm
21:32 -15.8 °C -16.7 °C 34164.7 hPa WSW 14.5 km/h 14.5 km/h 86 % 0 mm
21:38 -15.7 °C -16.7 °C 34164.7 hPa WSW 14.5 km/h 19.6 km/h 86 % 0 mm
21:41 -15.6 °C -16.7 °C 34164.7 hPa WSW 17.9 km/h 19.6 km/h 87 % 0 mm
21:44 -15.6 °C -16.7 °C 34164.7 hPa SW 14 km/h 22 km/h 87 % 0 mm
21:46 -15.5 °C -16.7 °C 34164.7 hPa WSW 15.6 km/h 22 km/h 87 % 0 mm
21:51 -15.4 °C -16.7 °C 34164.7 hPa SW 14 km/h 22 km/h 86 % 0 mm
21:56 -15.4 °C -16.7 °C 34164.7 hPa WSW 12.7 km/h 19.6 km/h 86 % 0 mm
22:02 -15.3 °C -16.7 °C 34164.7 hPa SW 17.4 km/h 22 km/h 86 % 0 mm
22:05 -15.2 °C -16.1 °C 34164.7 hPa WSW 22.5 km/h 22.5 km/h 86 % 0 mm
22:10 -15.2 °C -16.1 °C 34164.7 hPa WSW 17.4 km/h 22.5 km/h 86 % 0 mm
22:11 -15.2 °C -16.1 °C 34130.9 hPa WSW 15 km/h 22.5 km/h 86 % 0 mm
22:15 -15.1 °C -16.1 °C 34130.9 hPa WSW 16.9 km/h 22 km/h 85 % 0 mm
22:20 -14.9 °C -16.1 °C 34130.9 hPa WSW 22.5 km/h 31.4 km/h 85 % 0 mm
22:21 -14.8 °C -16.1 °C 34130.9 hPa West 45.1 km/h 45.1 km/h 85 % 0 mm
22:22 -14.8 °C -16.1 °C 34130.9 hPa West 26.2 km/h 45.1 km/h 85 % 0 mm
22:24 -14.7 °C -15.6 °C 34130.9 hPa WSW 17.4 km/h 45.1 km/h 85 % 0 mm
22:26 -14.7 °C -15.6 °C 34130.9 hPa West 20.9 km/h 45.1 km/h 85 % 0 mm
22:31 -14.7 °C -15.6 °C 34130.9 hPa West 34.1 km/h 34.1 km/h 85 % 0 mm
22:32 -14.7 °C -15.6 °C 34130.9 hPa WSW 32.3 km/h 36.5 km/h 85 % 0 mm
22:33 -14.7 °C -15.6 °C 34130.9 hPa West 24.3 km/h 36.5 km/h 85 % 0 mm
22:37 -14.4 °C -16.1 °C 34130.9 hPa West 20.3 km/h 36.5 km/h 80 % 0 mm
22:39 -14.4 °C -16.1 °C 34130.9 hPa West 26.7 km/h 36.5 km/h 80 % 0 mm
22:44 -14.3 °C -16.1 °C 34130.9 hPa WSW 20.3 km/h 36.5 km/h 78 % 0 mm
22:48 -14.3 °C -16.1 °C 34130.9 hPa West 12.2 km/h 31.9 km/h 78 % 0 mm
22:49 -14.4 °C -16.1 °C 34130.9 hPa West 19.2 km/h 31.9 km/h 78 % 0 mm
22:53 -14.4 °C -16.1 °C 34130.9 hPa WSW 27.2 km/h 31.4 km/h 78 % 0 mm
22:59 -14.3 °C -16.1 °C 34097 hPa West 20.3 km/h 27.7 km/h 77 % 0 mm
23:04 -14.4 °C -16.1 °C 34097 hPa WSW 14 km/h 27.7 km/h 77 % 0 mm
23:09 -14.4 °C -16.1 °C 34097 hPa WSW 12.7 km/h 27.7 km/h 77 % 0 mm
23:14 -14.4 °C -16.1 °C 34097 hPa WSW 14 km/h 25.4 km/h 77 % 0 mm
23:19 -14.6 °C -16.1 °C 34097 hPa WSW 18.7 km/h 22 km/h 78 % 0 mm
23:24 -14.6 °C -16.1 °C 34097 hPa WSW 15.6 km/h 19.6 km/h 78 % 0 mm
23:29 -14.6 °C -16.1 °C 34097 hPa WSW 15.6 km/h 19.6 km/h 79 % 0 mm
23:34 -14.6 °C -16.1 °C 34097 hPa WSW 19.6 km/h 25.4 km/h 80 % 0 mm
23:39 -14.6 °C -16.1 °C 34097 hPa WSW 19.2 km/h 27.2 km/h 80 % 0 mm
23:44 -14.6 °C -16.1 °C 34097 hPa SW 16.9 km/h 27.2 km/h 80 % 0 mm
23:49 -14.4 °C -16.1 °C 34097 hPa WSW 33.6 km/h 42.2 km/h 80 % 0 mm
23:54 -14.3 °C -16.1 °C 34097 hPa WSW 37 km/h 42.2 km/h 80 % 0 mm
23:59 -14.3 °C -16.1 °C 34097 hPa WSW 26.2 km/h 37 km/h 81 % 0 mm
Le Gheer Warneton
Courtoisie de Weather Underground - 1.5 mb

Mise a jour : 17/02/2018 20:46:12
Généré par Cumulus 1.9.4 (1099)